createdAt,value
2023-03-10T00:03:39.559Z,14.40
2023-03-10T00:11:48.239Z,14.50
2023-03-10T00:19:53.579Z,14.50
2023-03-10T00:28:01.582Z,14.30
2023-03-10T00:36:10.106Z,14.10
2023-03-10T00:44:19.167Z,14.10
2023-03-10T00:52:24.743Z,14.10
2023-03-10T01:00:32.747Z,14.10
2023-03-10T01:08:38.284Z,13.90
2023-03-10T01:16:46.393Z,13.70
2023-03-10T01:24:53.145Z,13.90
2023-03-10T01:33:01.172Z,13.80
2023-03-10T01:41:07.445Z,12.90
2023-03-10T01:49:25.699Z,13.10
2023-03-10T01:57:36.590Z,12.90
2023-03-10T02:05:48.867Z,12.80
2023-03-10T02:13:55.191Z,13.00
2023-03-10T02:22:08.016Z,13.00
2023-03-10T02:30:20.557Z,13.00
2023-03-10T02:38:26.151Z,13.00
2023-03-10T02:46:34.687Z,12.90
2023-03-10T02:54:40.222Z,12.90
2023-03-10T03:02:48.308Z,13.00
2023-03-10T03:10:54.818Z,12.70
2023-03-10T03:19:03.016Z,12.60
2023-03-10T03:27:09.242Z,12.40
2023-03-10T03:35:20.362Z,12.40
2023-03-10T03:43:27.770Z,12.50
2023-03-10T03:51:40.723Z,12.40
2023-03-10T03:59:47.199Z,12.30
2023-03-10T04:07:55.325Z,11.60
2023-03-10T04:16:02.389Z,11.60
2023-03-10T04:24:16.234Z,11.70
2023-03-10T04:32:22.131Z,11.40
2023-03-10T04:40:30.315Z,11.10
2023-03-10T04:48:36.212Z,11.20
2023-03-10T04:56:45.380Z,11.10
2023-03-10T05:04:51.098Z,11.00
2023-03-10T05:12:59.625Z,11.20
2023-03-10T05:21:05.985Z,11.40
2023-03-10T05:29:14.329Z,11.50
2023-03-10T05:37:24.978Z,11.90
2023-03-10T05:45:33.954Z,12.00
2023-03-10T05:53:41.190Z,12.40
2023-03-10T06:01:53.349Z,12.10
2023-03-10T06:09:59.593Z,12.50
2023-03-10T06:18:07.850Z,12.70
2023-03-10T06:26:17.772Z,13.20
2023-03-10T06:34:25.836Z,13.30
2023-03-10T06:42:31.296Z,13.20
2023-03-10T06:50:42.961Z,13.40
2023-03-10T06:58:48.627Z,13.30
2023-03-10T07:06:56.699Z,13.30
2023-03-10T07:15:02.425Z,13.30
2023-03-10T07:23:12.504Z,13.50
2023-03-10T07:31:18.278Z,13.90
2023-03-10T07:39:26.417Z,14.30
2023-03-10T07:47:31.876Z,14.50
2023-03-10T07:55:44.015Z,15.40
2023-03-10T08:03:50.072Z,14.90
2023-03-10T08:12:00.514Z,14.80
2023-03-10T08:20:07.078Z,15.30
2023-03-10T08:28:15.192Z,15.60
2023-03-10T08:36:24.402Z,16.60
2023-03-10T08:44:32.331Z,16.40
2023-03-10T08:52:39.148Z,15.90
2023-03-10T09:00:47.746Z,16.20
2023-03-10T09:08:53.343Z,17.50
2023-03-10T09:17:01.541Z,17.40
2023-03-10T09:25:07.766Z,17.10
2023-03-10T09:33:19.026Z,17.80
2023-03-10T09:41:44.461Z,18.80
2023-03-10T09:50:05.864Z,20.30
2023-03-10T09:58:17.017Z,21.90
2023-03-10T10:06:29.841Z,26.10
2023-03-10T10:14:38.450Z,28.70
2023-03-10T10:22:49.339Z,31.00
2023-03-10T10:30:57.875Z,33.20
2023-03-10T10:39:28.260Z,33.70
2023-03-10T10:47:38.182Z,32.40
2023-03-10T10:55:48.020Z,33.60
2023-03-10T11:04:08.202Z,35.50
2023-03-10T11:12:22.252Z,35.10
2023-03-10T11:20:32.981Z,28.80
2023-03-10T11:28:53.391Z,24.00
2023-03-10T11:37:07.291Z,23.30
2023-03-10T11:45:29.422Z,22.80
2023-03-10T11:53:41.936Z,22.60
2023-03-10T12:01:54.224Z,21.60
2023-03-10T12:10:02.115Z,21.30
2023-03-10T12:18:11.287Z,21.40
2023-03-10T12:26:16.853Z,21.30
2023-03-10T12:34:28.129Z,21.00
2023-03-10T12:42:35.396Z,21.00
2023-03-10T12:50:52.875Z,21.10
2023-03-10T12:59:01.520Z,20.60
2023-03-10T13:07:19.064Z,20.80
2023-03-10T13:15:27.476Z,20.40
2023-03-10T13:23:38.711Z,19.80
2023-03-10T13:31:44.643Z,19.60
2023-03-10T13:39:52.801Z,20.00
2023-03-10T13:47:58.401Z,20.00
2023-03-10T13:56:17.482Z,19.30
2023-03-10T14:04:42.619Z,19.30
2023-03-10T14:13:15.928Z,19.60
2023-03-10T14:21:33.810Z,19.70
2023-03-10T14:29:44.282Z,19.70
2023-03-10T14:37:49.965Z,19.60
2023-03-10T14:46:00.394Z,19.90
2023-03-10T14:54:06.504Z,19.60
2023-03-10T15:02:22.171Z,19.60
2023-03-10T15:10:30.314Z,19.60
2023-03-10T15:18:38.211Z,19.60
2023-03-10T15:27:04.050Z,19.80
2023-03-10T15:35:16.474Z,19.90
2023-03-10T15:43:24.349Z,19.80
2023-03-10T15:51:32.836Z,19.40
2023-03-10T15:59:38.362Z,19.10
2023-03-10T16:07:46.554Z,18.90
2023-03-10T16:15:52.885Z,19.00
2023-03-10T16:24:06.401Z,18.60
2023-03-10T16:32:12.583Z,18.90
2023-03-10T16:40:20.987Z,18.90
2023-03-10T16:48:30.174Z,19.20
2023-03-10T16:56:39.547Z,19.50
2023-03-10T17:04:45.526Z,18.60
2023-03-10T17:12:53.533Z,17.90
2023-03-10T17:20:58.928Z,17.80
2023-03-10T17:29:07.533Z,18.00
2023-03-10T17:37:13.283Z,18.00
2023-03-10T17:45:21.296Z,17.90
2023-03-10T17:53:27.033Z,17.90
2023-03-10T18:01:37.717Z,17.50
2023-03-10T18:09:43.178Z,17.20
2023-03-10T18:17:52.426Z,17.20
2023-03-10T18:25:59.037Z,17.00
2023-03-10T18:34:10.366Z,16.50
2023-03-10T18:42:16.009Z,16.10
2023-03-10T18:50:24.136Z,15.90
2023-03-10T18:58:30.103Z,15.50
2023-03-10T19:06:38.118Z,16.10
2023-03-10T19:14:44.851Z,15.60
2023-03-10T19:22:54.192Z,15.10
2023-03-10T19:30:59.754Z,15.00
2023-03-10T19:47:33.933Z,14.60
2023-03-10T19:55:43.615Z,14.80
2023-03-10T20:03:49.357Z,14.50
2023-03-10T20:11:57.619Z,14.50
2023-03-10T20:20:07.901Z,14.60
2023-03-10T20:28:16.680Z,14.70
2023-03-10T20:36:22.191Z,15.00
2023-03-10T20:44:32.351Z,15.20
2023-03-10T20:52:38.300Z,14.90
2023-03-10T21:00:49.626Z,15.20
2023-03-10T21:08:55.161Z,15.30
2023-03-10T21:17:04.138Z,15.20
2023-03-10T21:25:12.769Z,15.30
2023-03-10T21:33:23.201Z,15.80
2023-03-10T21:41:30.574Z,15.80
2023-03-10T21:49:38.542Z,16.20
2023-03-10T21:57:43.970Z,16.60
2023-03-10T22:05:52.101Z,16.60
2023-03-10T22:13:58.261Z,16.30
2023-03-10T22:22:06.299Z,16.70
2023-03-10T22:30:14.147Z,16.90
2023-03-10T22:38:22.830Z,17.10
2023-03-10T22:46:28.390Z,17.30
2023-03-10T22:54:36.802Z,17.20
2023-03-10T23:02:42.214Z,17.20
2023-03-10T23:10:50.341Z,17.20
2023-03-10T23:18:58.388Z,17.10
2023-03-10T23:27:06.620Z,17.10
2023-03-10T23:35:15.230Z,17.30
2023-03-10T23:43:23.349Z,17.10
2023-03-10T23:51:29.243Z,17.00
2023-03-10T23:59:37.178Z,16.90
